Terminal Aerodrome Forecast
Issued by NWS Upton, NY

Home | Current Version | Previous Version | Text Only | Print | Product List | Glossary On
Versions: 1 2 3 4 5 6 7 8 9 10 11 12 13 14 15 16 17 18 19 20 21 22 23 24 25 26 27 28 29 30 31 32 33 34 35 36 37 38 39 40 41 42 43
000
FTUS41 KOKX 181300 AAA
TAFLGA
TAF AMD
KLGA 181335Z 1814/1912 06012KT P6SM BKN025 BKN250
     FM181500 06010KT P6SM BKN020 BKN250
     FM181900 12008KT P6SM SCT030 BKN250
     FM182100 15008KT P6SM FEW030 BKN250
     FM190200 VRB05KT P6SM BKN150=

USA.gov is the U.S. government's official web portal to all federal, state and local government web resources and services.